Time;durP1;ratioP1;P1;durP2;ratioP2;P2;SDS_P1;SDS_P2;PMS_P1;PMS_P2;Temp;Humidity;BMP_temperature;BMP_pressure;BME280_temperature;BME280_humidity;BME280_pressure;Samples;Min_cycle;Max_cycle;Signal;HPM_P1;HPM_P2
2021/04/25 00:00:23;;;;;;;1.20;1.10;;;;;;;3.35;62.74;102041.19;5960971;29;20224;-72
2021/04/25 00:03:28;;;;;;;0.90;0.90;;;;;;;3.30;62.81;102054.25;5960432;30;20256;-71
2021/04/25 00:06:33;;;;;;;1.00;0.90;;;;;;;3.30;62.83;102038.06;5961000;30;20197;-72
2021/04/25 00:09:36;;;;;;;1.10;1.10;;;;;;;3.33;62.82;102053.13;5959515;30;20199;-70
2021/04/25 00:12:42;;;;;;;2.23;1.10;;;;;;;3.33;62.53;102032.41;5960545;30;20197;-70
2021/04/25 00:15:45;;;;;;;0.90;0.90;;;;;;;3.61;62.07;102042.34;5960559;30;20239;-72
2021/04/25 00:18:48;;;;;;;0.90;0.90;;;;;;;3.72;62.00;102047.56;5959298;30;20263;-71
2021/04/25 00:21:51;;;;;;;2.63;0.90;;;;;;;3.68;61.51;102040.75;5958669;29;20483;-72
2021/04/25 00:24:54;;;;;;;0.97;0.97;;;;;;;3.57;62.55;102046.28;5960450;30;20202;-71
2021/04/25 00:27:58;;;;;;;2.67;1.10;;;;;;;3.73;62.02;102041.19;5959294;30;20545;-71
2021/04/25 00:31:01;;;;;;;1.00;0.90;;;;;;;3.62;61.14;102027.81;5960438;30;20200;-72
2021/04/25 00:34:05;;;;;;;0.80;0.80;;;;;;;3.76;61.55;102050.84;5959934;30;20194;-71
2021/04/25 00:37:08;;;;;;;3.27;0.80;;;;;;;3.55;61.48;102042.03;5960123;30;20257;-71
2021/04/25 00:40:13;;;;;;;1.33;0.93;;;;;;;3.62;61.91;102038.63;5960208;30;20225;-71
2021/04/25 00:43:18;;;;;;;1.47;0.90;;;;;;;3.55;62.64;102042.03;5959948;30;20207;-72
2021/04/25 00:46:21;;;;;;;0.90;0.90;;;;;;;3.68;61.38;102043.47;5960158;30;20204;-72
2021/04/25 00:49:24;;;;;;;0.90;0.90;;;;;;;3.55;61.73;102042.91;5960067;30;20197;-71
2021/04/25 00:52:28;;;;;;;0.70;0.70;;;;;;;3.68;61.98;102046.16;5944063;30;20283;-71
2021/04/25 00:55:32;;;;;;;1.90;0.93;;;;;;;3.52;62.06;102037.78;5959911;30;20228;-71
2021/04/25 00:58:36;;;;;;;1.60;0.87;;;;;;;3.40;62.56;102033.53;5959210;30;20435;-71
2021/04/25 01:01:40;;;;;;;0.80;0.80;;;;;;;3.49;62.30;102043.44;5958537;30;20479;-72
2021/04/25 01:04:43;;;;;;;0.97;0.97;;;;;;;3.27;62.69;102029.38;5960062;30;20272;-71
2021/04/25 01:07:46;;;;;;;0.97;0.97;;;;;;;3.46;62.47;102035.66;5959530;30;20227;-71
2021/04/25 01:10:49;;;;;;;1.67;1.00;;;;;;;3.39;63.05;102037.19;5959309;30;20229;-71
2021/04/25 01:13:53;;;;;;;0.97;0.93;;;;;;;3.39;62.87;102029.09;5959559;30;20193;-71
2021/04/25 01:16:57;;;;;;;1.87;0.90;;;;;;;3.38;63.51;102031.97;5959433;30;20225;-72
2021/04/25 01:20:00;;;;;;;1.20;0.80;;;;;;;3.22;63.73;102029.81;5958047;30;20608;-72
2021/04/25 01:23:06;;;;;;;0.90;0.90;;;;;;;3.19;63.55;102003.13;5959335;30;20193;-72
2021/04/25 01:26:10;;;;;;;0.90;0.90;;;;;;;3.25;63.08;102026.84;5959362;30;20201;-71
2021/04/25 01:29:13;;;;;;;0.90;0.90;;;;;;;3.17;63.68;102027.56;5958883;30;20242;-71
2021/04/25 01:32:17;;;;;;;0.80;0.80;;;;;;;3.20;64.77;102012.94;5958867;30;20203;-72
2021/04/25 01:35:22;;;;;;;0.80;0.80;;;;;;;3.23;65.34;102009.09;5956867;29;20539;-72
2021/04/25 01:38:26;;;;;;;3.00;1.00;;;;;;;3.31;66.08;102012.81;5958786;30;20228;-72
2021/04/25 01:41:30;;;;;;;3.40;1.00;;;;;;;3.37;66.27;102011.34;5958224;30;20197;-71
2021/04/25 01:44:33;;;;;;;1.00;1.00;;;;;;;3.59;65.83;102011.94;5957588;30;20525;-71
2021/04/25 01:47:36;;;;;;;0.93;0.93;;;;;;;3.53;65.16;102009.81;5958737;30;20236;-71
2021/04/25 01:50:39;;;;;;;0.90;0.90;;;;;;;3.23;66.93;102009.97;5958464;30;20235;-71
2021/04/25 01:53:43;;;;;;;1.53;0.90;;;;;;;3.02;67.61;102006.53;5958665;30;20197;-72
2021/04/25 01:56:46;;;;;;;0.77;0.77;;;;;;;3.08;67.30;102006.81;5957369;30;20391;-71
2021/04/25 01:59:49;;;;;;;0.90;0.90;;;;;;;2.95;67.42;102016.16;5957511;30;20222;-72
2021/04/25 02:02:54;;;;;;;0.80;0.80;;;;;;;2.94;67.71;102012.63;5956971;30;20248;-70
2021/04/25 02:05:57;;;;;;;0.90;0.90;;;;;;;2.85;67.11;102010.75;5958491;30;20197;-71
2021/04/25 02:09:02;;;;;;;1.00;1.00;;;;;;;2.93;67.21;102005.50;5957276;30;20514;-70
2021/04/25 02:12:06;;;;;;;0.73;0.73;;;;;;;2.91;67.08;102009.34;5957220;30;20275;-72
2021/04/25 02:15:11;;;;;;;0.90;0.90;;;;;;;2.74;67.47;102007.31;5957037;30;20454;-70
2021/04/25 02:18:15;;;;;;;0.80;0.80;;;;;;;2.62;67.87;102003.03;5958278;30;20196;-71
2021/04/25 02:21:18;;;;;;;0.80;0.73;;;;;;;2.47;68.24;102000.72;5957844;30;20227;-71
2021/04/25 02:24:22;;;;;;;0.90;0.90;;;;;;;2.51;68.13;101998.63;5957786;30;20233;-72
2021/04/25 02:27:25;;;;;;;0.90;0.90;;;;;;;2.54;67.94;101996.47;5957388;30;20258;-71
2021/04/25 02:30:31;;;;;;;3.13;0.90;;;;;;;2.54;68.26;102003.72;5956801;30;20198;-71
2021/04/25 02:33:34;;;;;;;0.90;0.90;;;;;;;2.47;68.37;102000.72;5958013;30;20199;-71
2021/04/25 02:36:38;;;;;;;1.13;1.00;;;;;;;2.39;68.65;101995.16;5957604;30;20317;-71
2021/04/25 02:39:42;;;;;;;0.80;0.80;;;;;;;2.28;69.03;101989.88;5957870;30;20219;-71
2021/04/25 02:42:46;;;;;;;1.00;1.00;;;;;;;2.22;69.12;101987.72;5957879;30;20237;-71
2021/04/25 02:45:49;;;;;;;1.70;0.90;;;;;;;2.28;69.32;101992.56;5956239;30;20247;-72
2021/04/25 02:48:52;;;;;;;0.90;0.90;;;;;;;2.38;68.79;101990.78;5957434;30;20194;-71
2021/04/25 02:51:55;;;;;;;0.90;0.90;;;;;;;2.27;68.26;101987.31;5957768;30;20259;-71
2021/04/25 02:54:59;;;;;;;0.90;0.90;;;;;;;2.23;69.67;101997.53;5956404;30;20216;-71
2021/04/25 02:58:04;;;;;;;1.00;1.00;;;;;;;2.12;69.73;101994.91;5956452;30;20207;-71
2021/04/25 03:01:07;;;;;;;0.90;0.90;;;;;;;2.10;69.55;101999.56;5957568;30;20227;-71
2021/04/25 03:04:12;;;;;;;0.80;0.80;;;;;;;2.03;69.71;102003.78;5956876;30;20314;-71
2021/04/25 03:07:17;;;;;;;1.00;1.00;;;;;;;1.99;69.78;102005.03;5957360;30;20196;-71
2021/04/25 03:10:24;;;;;;;1.27;0.90;;;;;;;2.10;69.29;102002.28;5957229;30;20199;-71
2021/04/25 03:13:27;;;;;;;1.00;1.00;;;;;;;2.08;69.33;101998.84;5957646;30;20212;-71
2021/04/25 03:16:30;;;;;;;1.47;1.07;;;;;;;2.04;68.70;102008.19;5956596;30;20193;-71
2021/04/25 03:19:34;;;;;;;0.80;0.80;;;;;;;2.00;68.06;102006.75;5956234;30;20243;-72
2021/04/25 03:22:37;;;;;;;0.83;0.83;;;;;;;2.08;67.73;102009.59;5957261;30;20194;-71
2021/04/25 03:25:41;;;;;;;0.93;0.93;;;;;;;2.18;66.14;102010.53;5956237;30;20196;-72
2021/04/25 03:28:44;;;;;;;1.00;1.00;;;;;;;2.20;64.78;102008.56;5957584;30;20202;-72
2021/04/25 03:31:47;;;;;;;0.80;0.80;;;;;;;2.30;64.12;102004.06;5957165;30;20277;-72
2021/04/25 03:34:51;;;;;;;0.90;0.90;;;;;;;2.47;63.55;102016.03;5956517;30;20228;-71
2021/04/25 03:37:54;;;;;;;1.00;1.00;;;;;;;2.47;62.92;102014.19;5957019;30;20210;-72
2021/04/25 03:40:58;;;;;;;1.07;1.00;;;;;;;2.56;62.08;102017.06;5957271;30;20252;-71
2021/04/25 03:44:02;;;;;;;1.03;1.00;;;;;;;2.41;61.43;102025.50;5955968;30;20362;-71
2021/04/25 03:47:06;;;;;;;0.90;0.90;;;;;;;2.51;61.10;102017.47;5955960;30;20392;-71
2021/04/25 03:50:13;;;;;;;0.80;0.80;;;;;;;2.63;61.30;102020.91;5956891;30;20198;-71
2021/04/25 03:53:17;;;;;;;0.90;0.90;;;;;;;2.59;60.59;102024.88;5955965;30;20487;-71
2021/04/25 03:56:21;;;;;;;0.93;0.93;;;;;;;2.64;61.03;102006.44;5957210;29;20195;-71
2021/04/25 03:59:24;;;;;;;0.90;0.90;;;;;;;2.69;60.14;102026.59;5959757;30;20485;-71
2021/04/25 04:02:27;;;;;;;1.03;0.87;;;;;;;2.67;58.61;102022.34;5961059;29;20306;-71
2021/04/25 04:05:30;;;;;;;0.80;0.80;;;;;;;2.54;58.60;102012.63;5959837;30;20245;-72
2021/04/25 04:08:34;;;;;;;0.80;0.80;;;;;;;2.73;58.01;102008.31;5959878;30;20195;-71
2021/04/25 04:11:38;;;;;;;1.80;0.90;;;;;;;2.74;58.21;102002.78;5960943;30;20264;-71
2021/04/25 04:14:41;;;;;;;1.00;1.00;;;;;;;2.90;58.03;101999.56;5960879;30;20269;-73
2021/04/25 04:17:45;;;;;;;1.60;1.00;;;;;;;2.76;57.50;102003.50;5960949;30;20246;-72
2021/04/25 04:20:48;;;;;;;0.80;0.80;;;;;;;2.40;57.92;102004.94;5960382;30;20291;-72
2021/04/25 04:23:51;;;;;;;0.90;0.90;;;;;;;2.56;58.47;102025.13;5960585;30;20200;-71
2021/04/25 04:26:56;;;;;;;4.60;0.80;;;;;;;2.51;57.40;102007.56;5960717;30;20244;-71
2021/04/25 04:29:59;;;;;;;1.20;1.10;;;;;;;2.72;57.51;102014.69;5960309;30;20238;-71
2021/04/25 04:33:02;;;;;;;1.00;1.00;;;;;;;2.60;57.66;102011.25;5959173;30;20382;-71
2021/04/25 04:36:07;;;;;;;1.43;0.90;;;;;;;2.76;56.70;102010.72;5944444;30;20286;-71
2021/04/25 04:39:10;;;;;;;1.10;1.10;;;;;;;2.50;56.77;102005.84;5959063;30;20383;-71
2021/04/25 04:42:14;;;;;;;3.87;1.03;;;;;;;2.58;56.19;102007.84;5959937;30;20286;-71
2021/04/25 04:45:17;;;;;;;0.90;0.90;;;;;;;2.57;56.68;102005.31;5958917;30;20393;-72
2021/04/25 04:48:21;;;;;;;1.37;0.80;;;;;;;2.56;56.57;102011.66;5959818;30;20200;-71
2021/04/25 04:51:25;;;;;;;1.20;0.90;;;;;;;2.66;56.07;102008.00;5959507;30;20222;-72
2021/04/25 04:54:28;;;;;;;1.17;1.07;;;;;;;2.63;55.14;102010.13;5958695;30;20523;-71
2021/04/25 04:57:32;;;;;;;0.70;0.70;;;;;;;2.64;56.06;102018.09;5959526;30;20196;-71
2021/04/25 05:00:35;;;;;;;0.93;0.90;;;;;;;2.66;56.26;102010.72;5958482;30;20550;-71
2021/04/25 05:03:39;;;;;;;1.93;0.90;;;;;;;2.83;55.62;102006.47;5959555;30;20237;-70
2021/04/25 05:06:42;;;;;;;0.83;0.83;;;;;;;2.85;55.75;101999.13;5959818;30;20266;-72
2021/04/25 05:09:45;;;;;;;0.80;0.80;;;;;;;2.95;54.55;102021.56;5958228;29;20196;-71
2021/04/25 05:12:48;;;;;;;2.13;1.03;;;;;;;2.99;55.14;102006.81;5959384;30;20200;-71
2021/04/25 05:15:51;;;;;;;0.80;0.80;;;;;;;3.10;54.65;102010.25;5958331;30;20551;-71
2021/04/25 05:18:55;;;;;;;0.90;0.90;;;;;;;3.19;53.87;102008.50;5959461;30;20196;-71
2021/04/25 05:21:58;;;;;;;0.70;0.70;;;;;;;3.24;54.11;101995.47;5959294;30;20259;-71
2021/04/25 05:25:01;;;;;;;0.87;0.87;;;;;;;3.44;54.24;101996.34;5959078;30;20194;-71
2021/04/25 05:28:07;;;;;;;1.00;1.00;;;;;;;3.37;54.03;102000.56;5958996;30;20272;-71
2021/04/25 05:31:11;;;;;;;0.90;0.90;;;;;;;3.24;53.82;101990.06;5959195;30;20200;-71
2021/04/25 05:34:14;;;;;;;1.70;1.00;;;;;;;3.35;54.06;102002.56;5959188;30;20261;-72
2021/04/25 05:37:17;;;;;;;0.80;0.80;;;;;;;3.43;52.88;102011.66;5957982;30;20287;-71
2021/04/25 05:40:20;;;;;;;0.80;0.80;;;;;;;3.33;52.83;102005.41;5959596;30;20246;-70
2021/04/25 05:43:24;;;;;;;2.37;0.90;;;;;;;3.34;53.14;102007.09;5962872;30;20221;-72
2021/04/25 05:46:28;;;;;;;0.80;0.80;;;;;;;3.43;52.50;102005.41;5962708;29;20534;-70
2021/04/25 05:49:32;;;;;;;3.60;1.00;;;;;;;3.59;53.09;102021.88;5959542;30;20545;-71
2021/04/25 05:52:35;;;;;;;0.70;0.70;;;;;;;3.40;52.80;101989.50;5962588;30;20201;-71
2021/04/25 05:55:39;;;;;;;1.50;0.97;;;;;;;3.43;52.55;102008.97;5960612;30;20266;-71
2021/04/25 05:58:43;;;;;;;1.00;1.00;;;;;;;3.35;53.06;102003.41;5958200;30;20245;-71
2021/04/25 06:01:46;;;;;;;0.80;0.80;;;;;;;3.60;52.79;102004.69;5957886;30;20224;-70
2021/04/25 06:04:49;;;;;;;0.90;0.90;;;;;;;3.70;52.08;102009.06;5958106;30;20279;-71
2021/04/25 06:07:52;;;;;;;0.80;0.80;;;;;;;3.75;52.23;102016.72;5958292;30;20204;-71
2021/04/25 06:10:55;;;;;;;1.27;1.00;;;;;;;3.85;52.43;102005.94;5958204;30;20207;-72
2021/04/25 06:13:59;;;;;;;1.67;1.00;;;;;;;3.80;51.52;102004.50;5957953;30;20258;-72
2021/04/25 06:17:02;;;;;;;;;;;;;;;3.76;51.03;102013.03;5958341;29;20207;-71
2021/04/25 06:20:07;;;;;;;3.00;0.80;;;;;;;3.74;51.80;102010.50;5956230;30;20919;-72
2021/04/25 06:23:13;;;;;;;2.13;1.00;;;;;;;4.06;52.01;102020.06;5956979;30;20509;-71
2021/04/25 06:26:16;;;;;;;0.90;0.90;;;;;;;3.94;51.66;102015.84;5957877;29;20474;-71
2021/04/25 06:29:20;;;;;;;0.80;0.80;;;;;;;3.93;51.25;102016.88;5958181;30;20197;-71
2021/04/25 06:32:23;;;;;;;1.00;0.80;;;;;;;4.19;50.66;102012.50;5958090;30;20200;-71
2021/04/25 06:35:27;;;;;;;0.90;0.90;;;;;;;3.93;51.24;102014.16;5957139;30;20235;-72
2021/04/25 06:38:30;;;;;;;0.93;0.80;;;;;;;4.04;50.58;102016.66;5956741;30;20196;-72
2021/04/25 06:41:34;;;;;;;0.90;0.87;;;;;;;4.27;50.51;102023.44;5957627;30;20224;-71
2021/04/25 06:44:38;;;;;;;0.80;0.80;;;;;;;4.27;49.88;102004.50;5958253;30;20221;-71
2021/04/25 06:47:41;;;;;;;1.90;0.80;;;;;;;4.24;50.06;102012.91;5957821;30;20233;-71
2021/04/25 06:50:44;;;;;;;1.03;1.03;;;;;;;4.26;49.86;102021.75;5956582;30;20240;-70
2021/04/25 06:53:47;;;;;;;0.90;0.80;;;;;;;4.38;50.24;102021.41;5957409;30;20206;-71
2021/04/25 06:56:51;;;;;;;0.73;0.73;;;;;;;4.44;50.23;102014.56;5957208;30;20366;-71
2021/04/25 06:59:55;;;;;;;0.87;0.87;;;;;;;4.66;49.18;102013.31;5942048;30;20351;-71
2021/04/25 07:02:59;;;;;;;1.00;1.00;;;;;;;4.64;48.95;102004.50;5956708;30;20315;-71
2021/04/25 07:06:02;;;;;;;0.77;0.77;;;;;;;4.59;49.41;102007.66;5956518;30;20377;-71
2021/04/25 07:09:06;;;;;;;1.00;0.80;;;;;;;4.74;49.64;102011.56;5956573;30;20204;-71
2021/04/25 07:12:09;;;;;;;0.90;0.90;;;;;;;4.51;49.42;102015.66;5956484;30;20208;-72
2021/04/25 07:15:14;;;;;;;0.90;0.90;;;;;;;4.68;49.03;102025.66;5957302;30;20275;-71
2021/04/25 07:18:18;;;;;;;0.93;0.93;;;;;;;4.64;49.81;102026.97;5956308;30;20362;-71
2021/04/25 07:21:21;;;;;;;0.90;0.90;;;;;;;4.71;48.90;102017.25;5956316;30;20229;-72
2021/04/25 07:24:25;;;;;;;0.80;0.80;;;;;;;4.73;49.08;101985.50;5957361;30;20226;-71
2021/04/25 07:27:28;;;;;;;1.00;1.00;;;;;;;4.77;49.08;102005.84;5956249;30;20373;-71
2021/04/25 07:30:33;;;;;;;0.83;0.83;;;;;;;4.82;49.21;102024.31;5956985;29;20226;-72
2021/04/25 07:33:37;;;;;;;0.90;0.90;;;;;;;4.26;49.15;101938.81;5960616;30;20507;-72
2021/04/25 07:36:40;;;;;;;1.53;0.90;;;;;;;4.70;49.37;102034.47;5961650;30;20262;-72
2021/04/25 07:39:43;;;;;;;0.80;0.80;;;;;;;4.93;50.00;102024.94;5960685;30;20204;-72
2021/04/25 07:42:47;;;;;;;0.70;0.70;;;;;;;4.84;49.49;102017.75;5960245;30;20295;-71
2021/04/25 07:45:51;;;;;;;0.80;0.80;;;;;;;4.79;50.28;102030.88;5961262;29;20204;-71
2021/04/25 07:48:54;;;;;;;4.50;1.07;;;;;;;4.79;49.28;102035.44;5960567;30;20202;-71
2021/04/25 07:51:57;;;;;;;0.80;0.80;;;;;;;4.71;49.65;102033.50;5960968;30;20198;-71
2021/04/25 07:55:00;;;;;;;5.43;0.90;;;;;;;4.84;49.53;102034.00;5960860;30;20300;-71
2021/04/25 07:58:04;;;;;;;3.93;0.93;;;;;;;4.55;48.75;102043.22;5960887;30;20202;-71
2021/04/25 08:01:10;;;;;;;0.80;0.80;;;;;;;4.76;49.04;102031.19;5960666;30;20234;-71
2021/04/25 08:04:13;;;;;;;0.87;0.87;;;;;;;4.79;48.77;102036.28;5960602;30;20514;-72
2021/04/25 08:07:17;;;;;;;0.90;0.90;;;;;;;4.81;48.69;102031.59;5961514;30;20236;-71
2021/04/25 08:10:20;;;;;;;0.70;0.70;;;;;;;4.75;49.71;102021.34;5960308;30;20217;-71
2021/04/25 08:13:26;;;;;;;0.70;0.70;;;;;;;5.02;49.39;102040.28;5960595;30;20220;-72
2021/04/25 08:16:30;;;;;;;1.53;0.90;;;;;;;4.80;48.74;102037.97;5959479;30;20541;-72
2021/04/25 08:19:33;;;;;;;1.20;1.10;;;;;;;4.68;49.54;102043.72;5959752;30;20252;-72
2021/04/25 08:22:36;;;;;;;1.77;0.90;;;;;;;4.47;50.17;102052.06;5960250;30;20219;-71
2021/04/25 08:25:39;;;;;;;1.03;0.97;;;;;;;4.51;49.68;102048.09;5959358;30;20492;-71
2021/04/25 08:28:42;;;;;;;2.00;0.90;;;;;;;4.65;50.62;102044.06;5960430;29;20195;-71
2021/04/25 08:31:46;;;;;;;0.90;0.90;;;;;;;4.61;50.47;102054.31;5959057;30;20390;-72
2021/04/25 08:34:50;;;;;;;1.17;0.70;;;;;;;4.51;52.30;102058.91;5959062;30;20562;-72
2021/04/25 08:37:53;;;;;;;0.97;0.97;;;;;;;4.47;52.80;102068.28;5959861;29;20196;-72
2021/04/25 08:41:00;;;;;;;1.80;1.07;;;;;;;4.31;54.47;102078.88;5959927;30;20286;-72
2021/04/25 08:44:06;;;;;;;0.80;0.80;;;;;;;4.26;55.40;102075.78;5958243;29;20370;-71
2021/04/25 08:47:12;;;;;;;1.13;1.03;;;;;;;4.29;56.05;102054.69;5960013;30;20203;-71
2021/04/25 08:50:16;;;;;;;1.10;1.00;;;;;;;4.39;56.37;102079.00;5959576;30;20195;-72
2021/04/25 08:53:20;;;;;;;1.00;1.00;;;;;;;4.50;56.20;102078.81;5959518;30;20280;-71
2021/04/25 08:56:23;;;;;;;2.87;1.23;;;;;;;4.60;56.65;102085.03;5958383;30;20489;-71
2021/04/25 08:59:26;;;;;;;6.90;1.50;;;;;;;4.69;54.68;102073.34;5959508;30;20200;-71
2021/04/25 09:02:30;;;;;;;1.43;1.40;;;;;;;4.78;55.68;102061.63;5958640;29;20290;-71
2021/04/25 09:05:33;;;;;;;1.17;1.17;;;;;;;5.03;54.14;102060.91;5957883;30;20218;-71
2021/04/25 09:08:47;;;;;;;0.97;0.97;;;;;;;4.63;54.54;102068.53;5959020;30;20202;-71
2021/04/25 09:11:51;;;;;;;3.60;1.10;;;;;;;4.75;53.28;102067.31;5959034;30;20200;-71
2021/04/25 09:14:55;;;;;;;0.97;0.77;;;;;;;4.74;53.01;102068.34;5957969;30;20195;-72
2021/04/25 09:18:00;;;;;;;2.37;1.10;;;;;;;4.75;52.78;102071.91;5959228;30;20196;-72
2021/04/25 09:21:07;;;;;;;3.80;1.00;;;;;;;4.63;54.33;102067.66;5957910;30;20483;-71
2021/04/25 09:24:21;;;;;;;0.70;0.70;;;;;;;4.57;55.26;102074.50;5958662;30;20200;-72
2021/04/25 09:27:26;;;;;;;1.37;1.37;;;;;;;4.66;54.94;102078.19;5958799;30;20197;-72
2021/04/25 09:30:29;;;;;;;1.20;1.20;;;;;;;4.67;53.97;102083.47;5958333;30;20196;-71
2021/04/25 09:33:51;;;;;;;1.50;0.70;;;;;;;4.78;54.14;102077.84;5957561;30;20546;-71
2021/04/25 09:36:55;;;;;;;0.90;0.90;;;;;;;4.83;53.26;102083.66;5958449;30;20263;-71
2021/04/25 09:40:00;;;;;;;0.87;0.87;;;;;;;4.75;52.52;102078.13;5957661;30;20544;-71
2021/04/25 09:43:06;;;;;;;1.03;1.00;;;;;;;4.77;51.39;102078.88;5958687;30;20231;-71
2021/04/25 09:46:09;;;;;;;3.00;1.10;;;;;;;4.62;52.02;102072.25;5958902;30;20239;-71
2021/04/25 09:49:38;;;;;;;0.90;0.90;;;;;;;4.64;50.36;102070.25;5958381;30;20204;-72
2021/04/25 09:52:43;;;;;;;4.13;0.90;;;;;;;4.74;50.06;102089.13;5958543;30;20229;-71
2021/04/25 09:55:55;;;;;;;1.10;1.10;;;;;;;4.55;50.99;102083.75;5957602;29;20204;-72
2021/04/25 09:59:03;;;;;;;1.10;1.10;;;;;;;4.39;52.14;102081.72;5958215;30;20273;-72
2021/04/25 10:02:07;;;;;;;1.10;1.10;;;;;;;4.69;51.25;102065.22;5957863;30;20275;-72
2021/04/25 10:05:14;;;;;;;4.33;0.70;;;;;;;4.62;49.62;102099.28;5958106;30;20206;-72
2021/04/25 10:08:28;;;;;;;1.00;1.00;;;;;;;4.64;50.17;102091.88;5958283;30;20207;-71
2021/04/25 10:11:35;;;;;;;5.83;1.23;;;;;;;4.80;49.52;102092.06;5958006;30;20283;-71
2021/04/25 10:14:38;;;;;;;1.10;1.10;;;;;;;4.87;48.98;102103.16;5956931;30;20423;-71
2021/04/25 10:18:01;;;;;;;0.90;0.90;;;;;;;4.87;49.44;102105.84;5958128;30;20196;-72
2021/04/25 10:21:06;;;;;;;1.00;1.00;;;;;;;4.75;50.72;102099.75;5957877;30;20201;-71
2021/04/25 10:24:11;;;;;;;0.90;0.90;;;;;;;4.73;50.49;102096.38;5957807;30;20195;-72
2021/04/25 10:27:16;;;;;;;1.00;1.00;;;;;;;4.71;50.45;102097.50;5956598;30;20196;-71
2021/04/25 10:30:20;;;;;;;2.00;1.10;;;;;;;4.84;49.75;102098.03;5956583;30;20237;-71
2021/04/25 10:33:23;;;;;;;1.20;1.20;;;;;;;4.98;49.52;102095.66;5956660;30;20198;-71
2021/04/25 10:36:56;;;;;;;1.20;1.20;;;;;;;5.02;49.17;102102.50;5957445;30;20226;-71
2021/04/25 10:39:59;;;;;;;2.43;1.00;;;;;;;5.07;49.39;102108.31;5956359;30;20261;-71
2021/04/25 10:43:06;;;;;;;1.20;1.20;;;;;;;4.97;49.29;102094.00;5956167;30;20560;-71
2021/04/25 10:46:10;;;;;;;1.03;1.03;;;;;;;4.95;49.13;102096.00;5956417;30;20245;-72
2021/04/25 10:49:30;;;;;;;1.00;1.00;;;;;;;4.94;48.30;102115.91;5957258;30;20199;-72
2021/04/25 10:52:36;;;;;;;1.90;1.00;;;;;;;4.95;48.54;102106.81;5956262;30;20249;-72
2021/04/25 10:55:39;;;;;;;1.00;1.00;;;;;;;5.10;47.99;102100.88;5956284;30;20428;-71
2021/04/25 10:58:44;;;;;;;1.10;0.90;;;;;;;5.19;48.30;102097.28;5956135;30;20258;-71
2021/04/25 11:01:48;;;;;;;1.00;1.00;;;;;;;4.98;47.75;102090.25;5955875;29;20529;-71
2021/04/25 11:05:07;;;;;;;1.13;1.10;;;;;;;4.99;47.96;102086.56;5957051;30;20252;-71
2021/04/25 11:08:39;;;;;;;1.33;1.10;;;;;;;5.22;47.87;102097.81;5961379;30;20194;-72
2021/04/25 11:11:42;;;;;;;0.90;0.90;;;;;;;5.33;47.71;102104.88;5961928;30;20205;-72
2021/04/25 11:14:45;;;;;;;0.87;0.87;;;;;;;5.11;46.84;102099.91;5960921;30;20246;-72
2021/04/25 11:17:48;;;;;;;0.80;0.80;;;;;;;5.07;48.57;102094.78;5961586;30;20195;-71
2021/04/25 11:20:51;;;;;;;1.00;1.00;;;;;;;5.13;46.78;102108.72;5960560;29;20227;-71
2021/04/25 11:23:56;;;;;;;0.80;0.80;;;;;;;5.28;46.79;102107.19;5961637;30;20224;-71
2021/04/25 11:27:07;;;;;;;1.17;1.00;;;;;;;5.32;46.75;102092.34;5960962;30;20203;-72
2021/04/25 11:30:11;;;;;;;1.20;1.07;;;;;;;5.33;46.82;102094.06;5960319;30;20480;-71
2021/04/25 11:33:33;;;;;;;1.90;1.13;;;;;;;5.28;46.56;102086.41;5961276;30;20200;-71
2021/04/25 11:36:38;;;;;;;0.80;0.80;;;;;;;5.24;47.04;102111.22;5961443;30;20199;-71
2021/04/25 11:39:45;;;;;;;1.00;1.00;;;;;;;5.28;46.27;102107.19;5961362;30;20228;-71
2021/04/25 11:42:50;;;;;;;1.27;1.20;;;;;;;5.21;46.89;102111.50;5961056;30;20230;-71
2021/04/25 11:45:53;;;;;;;1.10;1.10;;;;;;;5.37;45.89;102106.25;5960697;30;20200;-71
2021/04/25 11:48:57;;;;;;;3.20;1.00;;;;;;;5.25;46.60;102102.94;5961161;30;20227;-71
2021/04/25 11:52:07;;;;;;;1.00;1.00;;;;;;;5.32;46.96;102100.47;5959642;30;20278;-71
2021/04/25 11:55:14;;;;;;;0.93;0.93;;;;;;;5.50;46.33;102090.50;5960616;30;20216;-72
2021/04/25 11:58:20;;;;;;;0.80;0.80;;;;;;;5.49;45.35;102105.06;5960971;30;20196;-72
2021/04/25 12:01:23;;;;;;;2.47;1.10;;;;;;;5.51;46.12;102103.91;5960059;30;20202;-72
2021/04/25 12:04:44;;;;;;;3.20;1.10;;;;;;;5.49;47.32;102088.81;5960057;30;20252;-71
2021/04/25 12:07:49;;;;;;;0.90;0.90;;;;;;;5.46;47.60;102110.78;5960485;30;20209;-71
2021/04/25 12:10:54;;;;;;;1.13;0.90;;;;;;;5.45;47.28;102109.06;5960325;30;20276;-71
2021/04/25 12:13:57;;;;;;;0.90;0.90;;;;;;;5.56;46.39;102089.91;5960551;30;20275;-70
2021/04/25 12:17:10;;;;;;;1.20;1.20;;;;;;;5.58;46.74;102112.25;5965561;29;20196;-71
2021/04/25 12:20:13;;;;;;;0.70;0.70;;;;;;;5.71;47.18;102112.72;5964765;30;20197;-72
2021/04/25 12:23:19;;;;;;;3.80;0.90;;;;;;;5.30;50.14;102124.13;5959318;30;20273;-71
2021/04/25 12:26:25;;;;;;;0.90;0.90;;;;;;;5.46;50.32;102121.59;5960166;30;20203;-71
2021/04/25 12:29:36;;;;;;;0.90;0.90;;;;;;;5.48;49.71;102111.47;5959089;30;20489;-71
2021/04/25 12:32:39;;;;;;;1.37;1.00;;;;;;;5.52;49.72;102115.59;5959952;30;20303;-71
2021/04/25 12:35:44;;;;;;;0.90;0.90;;;;;;;5.25;50.13;102115.59;5959978;30;20262;-71
2021/04/25 12:38:55;;;;;;;1.60;1.60;;;;;;;5.33;50.41;102115.69;5959793;30;20256;-72
2021/04/25 12:42:01;;;;;;;1.90;0.93;;;;;;;5.40;50.66;102122.19;5959832;30;20195;-71
2021/04/25 12:45:27;;;;;;;0.80;0.80;;;;;;;5.63;50.48;102123.47;5943670;30;20216;-73
2021/04/25 12:48:42;;;;;;;0.83;0.83;;;;;;;5.70;50.03;102108.28;5958369;30;20385;-73
2021/04/25 12:51:47;;;;;;;0.80;0.80;;;;;;;5.71;49.32;102115.44;5959282;30;20201;-72
2021/04/25 12:54:50;;;;;;;1.20;1.20;;;;;;;5.79;49.15;102112.81;5958852;30;20520;-72
2021/04/25 12:58:07;;;;;;;0.87;0.83;;;;;;;5.65;49.48;102110.63;5958230;30;20455;-73
2021/04/25 13:01:20;;;;;;;2.17;1.10;;;;;;;5.51;50.52;102130.97;5958686;30;20196;-71
2021/04/25 13:04:33;;;;;;;0.90;0.90;;;;;;;5.36;52.66;102120.81;5959124;30;20262;-72
2021/04/25 13:07:39;;;;;;;0.93;0.93;;;;;;;5.43;51.85;102121.91;5958357;30;20197;-70
2021/04/25 13:10:49;;;;;;;0.83;0.80;;;;;;;5.38;51.99;102110.69;5959344;29;20276;-72
2021/04/25 13:14:05;;;;;;;2.10;0.90;;;;;;;5.61;51.34;102120.06;5959436;30;20201;-72
2021/04/25 13:17:08;;;;;;;2.73;0.97;;;;;;;5.62;50.38;102116.38;5958224;30;20482;-71
2021/04/25 13:20:31;;;;;;;0.80;0.80;;;;;;;5.90;50.35;102112.59;5959379;30;20267;-72
2021/04/25 13:23:35;;;;;;;0.90;0.90;;;;;;;5.91;50.52;102133.25;5942083;30;20237;-72
2021/04/25 13:26:39;;;;;;;0.70;0.70;;;;;;;5.70;51.28;102127.25;5959293;30;20252;-72
2021/04/25 13:29:45;;;;;;;0.90;0.90;;;;;;;5.40;53.08;102117.66;5958785;29;20276;-73
2021/04/25 13:32:48;;;;;;;0.90;0.90;;;;;;;5.69;53.05;102128.28;5942359;30;20259;-72
2021/04/25 13:35:52;;;;;;;1.13;1.13;;;;;;;5.78;53.50;102121.91;5958984;30;20196;-72
2021/04/25 13:38:55;;;;;;;0.73;0.73;;;;;;;5.84;53.42;102117.75;5957738;30;20427;-71
2021/04/25 13:41:58;;;;;;;1.20;0.90;;;;;;;5.78;51.16;102116.50;5958737;29;20272;-72
2021/04/25 13:45:02;;;;;;;0.90;0.90;;;;;;;5.81;51.18;102126.16;5958923;30;20229;-72
2021/04/25 13:48:07;;;;;;;1.13;0.80;;;;;;;5.77;50.48;102119.38;5958463;30;20212;-73
2021/04/25 13:51:10;;;;;;;2.80;0.90;;;;;;;5.79;50.84;102118.22;5958697;30;20197;-73
2021/04/25 13:54:13;;;;;;;2.43;1.00;;;;;;;5.97;50.63;102139.91;5958857;30;20227;-72
2021/04/25 13:57:19;;;;;;;0.90;0.90;;;;;;;5.82;51.01;102134.16;5958300;30;20235;-72
2021/04/25 14:00:26;;;;;;;0.80;0.80;;;;;;;5.70;51.86;102124.53;5958765;30;20237;-71
2021/04/25 14:03:29;;;;;;;1.50;0.90;;;;;;;5.69;51.54;102139.09;5958620;30;20251;-72
2021/04/25 14:06:35;;;;;;;1.27;0.90;;;;;;;5.61;50.30;102103.81;5958725;30;20277;-72
2021/04/25 14:09:38;;;;;;;0.80;0.80;;;;;;;5.80;50.51;102119.94;5958100;30;20197;-72
2021/04/25 14:12:41;;;;;;;1.03;1.00;;;;;;;5.85;50.99;102112.22;5958249;30;20281;-73
2021/04/25 14:15:47;;;;;;;1.00;1.00;;;;;;;5.97;50.41;102132.63;5957261;30;20487;-73
2021/04/25 14:18:50;;;;;;;1.27;0.77;;;;;;;5.92;51.13;102116.00;5957234;30;20350;-73
2021/04/25 14:21:54;;;;;;;1.27;1.00;;;;;;;5.80;52.98;102129.91;5956917;30;20569;-72
2021/04/25 14:24:58;;;;;;;1.87;0.90;;;;;;;5.53;53.79;102122.69;5956977;30;20284;-72
2021/04/25 14:28:01;;;;;;;0.73;0.73;;;;;;;5.41;56.57;102132.91;5958193;29;20299;-71
2021/04/25 14:31:05;;;;;;;1.40;1.37;;;;;;;5.34;57.59;102134.47;5957189;30;20441;-72